Time;durP1;ratioP1;P1;durP2;ratioP2;P2;SDS_P1;SDS_P2;PMS_P1;PMS_P2;Temp;Humidity;BMP_temperature;BMP_pressure;BME280_temperature;BME280_humidity;BME280_pressure;Samples;Min_cycle;Max_cycle;Signal;HPM_P1;HPM_P2
2022/08/01 00:02:03;;;;;;;3.73;2.50;;;22.00;95.00;;;;;;5056306;28;20438;-76
2022/08/01 00:04:30;;;;;;;2.80;2.50;;;21.90;95.10;;;;;;5056229;28;20543;-76
2022/08/01 00:06:58;;;;;;;3.83;3.20;;;21.90;95.30;;;;;;5056176;28;20847;-76
2022/08/01 00:09:25;;;;;;;2.70;2.50;;;21.80;95.30;;;;;;5055930;28;20481;-76
2022/08/01 00:11:51;;;;;;;2.80;2.50;;;21.80;95.60;;;;;;5056290;28;20572;-76
2022/08/01 00:14:18;;;;;;;3.53;2.57;;;21.80;95.60;;;;;;5056283;28;20452;-76
2022/08/01 00:16:45;;;;;;;3.17;2.57;;;21.70;95.60;;;;;;5056389;28;20456;-76
2022/08/01 00:19:12;;;;;;;2.50;2.30;;;21.70;96.00;;;;;;5056216;28;20540;-76
2022/08/01 00:21:38;;;;;;;4.60;2.73;;;21.60;96.00;;;;;;5055697;28;20444;-76
2022/08/01 00:24:07;;;;;;;3.33;3.13;;;21.60;96.20;;;;;;5056184;28;20446;-76
2022/08/01 00:26:34;;;;;;;2.50;2.30;;;21.60;96.40;;;;;;5055947;28;20480;-76
2022/08/01 00:29:01;;;;;;;3.13;2.50;;;21.70;96.40;;;;;;5056159;28;20814;-76
2022/08/01 00:31:27;;;;;;;5.30;3.10;;;21.70;96.30;;;;;;5055646;28;20477;-76
2022/08/01 00:33:54;;;;;;;3.10;2.80;;;21.70;96.20;;;;;;5056450;28;20446;-76
2022/08/01 00:36:21;;;;;;;3.50;2.67;;;21.60;96.40;;;;;;5056824;28;20456;-76
2022/08/01 00:38:48;;;;;;;3.37;2.60;;;21.60;96.60;;;;;;5056400;28;20450;-76
2022/08/01 00:41:16;;;;;;;3.42;2.80;;;21.50;96.90;;;;;;5056073;28;20447;-76
2022/08/01 00:43:43;;;;;;;4.43;2.70;;;21.60;96.80;;;;;;5056221;28;20190;-76
2022/08/01 00:46:10;;;;;;;4.47;3.33;;;21.50;96.70;;;;;;5056720;28;20453;-76
2022/08/01 00:48:36;;;;;;;5.10;3.20;;;21.50;96.90;;;;;;5055978;28;20456;-76
2022/08/01 00:51:05;;;;;;;4.60;2.73;;;21.50;96.80;;;;;;5055841;28;20478;-76
2022/08/01 00:53:32;;;;;;;3.00;2.70;;;21.50;97.00;;;;;;5055699;28;20477;-76
2022/08/01 00:55:58;;;;;;;3.40;2.97;;;21.40;97.10;;;;;;5055587;28;20454;-76
2022/08/01 00:58:29;;;;;;;3.43;3.03;;;21.40;97.20;;;;;;5055183;28;20446;-76
2022/08/01 01:00:55;;;;;;;3.10;2.43;;;21.40;97.20;;;;;;5055482;28;20466;-76
2022/08/01 01:03:23;;;;;;;4.20;3.30;;;21.40;97.20;;;;;;5055237;28;20434;-76
2022/08/01 01:05:59;;;;;;;3.40;3.10;;;21.50;97.20;;;;;;5055687;28;20437;-76
2022/08/01 01:08:35;;;;;;;4.17;3.40;;;21.50;97.10;;;;;;5055871;28;20430;-76
2022/08/01 01:11:06;;;;;;;4.80;2.57;;;21.50;97.00;;;;;;5055533;28;20469;-76
2022/08/01 01:13:38;;;;;;;4.87;3.07;;;21.50;97.10;;;;;;5055251;28;20492;-76
2022/08/01 01:16:11;;;;;;;2.60;2.40;;;21.40;97.30;;;;;;5055578;28;20430;-76
2022/08/01 01:18:43;;;;;;;2.87;2.60;;;21.40;97.20;;;;;;5054960;28;20440;-76
2022/08/01 01:21:20;;;;;;;5.43;3.37;;;21.40;97.30;;;;;;5055074;28;20843;-76
2022/08/01 01:24:04;;;;;;;4.70;2.90;;;21.40;97.30;;;;;;5055157;28;20430;-76
2022/08/01 01:26:40;;;;;;;3.23;2.93;;;21.40;97.40;;;;;;5055225;28;20441;-76
2022/08/01 01:29:15;;;;;;;3.90;2.73;;;21.30;97.50;;;;;;5055137;28;20442;-76
2022/08/01 01:31:48;;;;;;;3.93;3.00;;;21.40;97.60;;;;;;5055065;28;20442;-76
2022/08/01 01:34:19;;;;;;;4.85;3.17;;;21.30;97.60;;;;;;5054995;28;20496;-76
2022/08/01 01:36:48;;;;;;;4.93;3.90;;;21.40;97.80;;;;;;5054701;28;20199;-76
2022/08/01 01:39:16;;;;;;;2.83;2.63;;;21.40;97.60;;;;;;5054418;28;20452;-76
2022/08/01 01:41:44;;;;;;;6.73;3.10;;;21.40;97.50;;;;;;5054335;28;20464;-76
2022/08/01 01:44:14;;;;;;;3.23;2.90;;;21.40;97.60;;;;;;5054712;28;20446;-76
2022/08/01 01:46:41;;;;;;;4.30;3.17;;;21.40;97.40;;;;;;5054610;28;20544;-76
2022/08/01 01:49:10;;;;;;;3.50;3.20;;;21.40;97.60;;;;;;5054099;28;20453;-76
2022/08/01 01:51:41;;;;;;;5.00;3.17;;;21.40;97.60;;;;;;5054192;28;20492;-76
2022/08/01 01:54:09;;;;;;;5.90;3.37;;;21.60;97.60;;;;;;5054513;28;20198;-76
2022/08/01 01:56:48;;;;;;;3.13;2.90;;;21.50;97.30;;;;;;5054673;28;20448;-76
2022/08/01 01:59:19;;;;;;;3.20;2.90;;;21.50;97.30;;;;;;5054304;28;20501;-76
2022/08/01 02:01:48;;;;;;;3.37;2.63;;;21.50;97.40;;;;;;5054301;28;20460;-76
2022/08/01 02:04:16;;;;;;;3.30;2.90;;;21.50;97.40;;;;;;5069341;28;20456;-73
2022/08/01 02:06:46;;;;;;;4.53;3.37;;;21.50;97.50;;;;;;5074983;28;20218;-73
2022/08/01 02:09:17;;;;;;;3.53;3.23;;;21.50;97.30;;;;;;5074650;28;20446;-73
2022/08/01 02:11:45;;;;;;;3.10;2.80;;;21.50;97.30;;;;;;5074079;28;20514;-73
2022/08/01 02:14:13;;;;;;;4.80;3.30;;;21.50;97.40;;;;;;5075120;28;20453;-73
2022/08/01 02:16:44;;;;;;;3.77;3.03;;;21.40;97.40;;;;;;5077980;28;20505;-73
2022/08/01 02:19:12;;;;;;;4.13;3.37;;;21.40;97.40;;;;;;5077177;28;20426;-73
2022/08/01 02:21:42;;;;;;;4.07;3.33;;;21.40;97.60;;;;;;5076447;28;20453;-73
2022/08/01 02:24:15;;;;;;;4.03;3.27;;;21.40;97.60;;;;;;5065978;28;20441;-73
2022/08/01 02:26:48;;;;;;;5.43;3.27;;;21.40;97.50;;;;;;5067879;28;20441;-73
2022/08/01 02:29:22;;;;;;;3.73;3.33;;;21.40;97.60;;;;;;5074628;28;20429;-73
2022/08/01 02:31:54;;;;;;;3.60;3.20;;;21.40;97.50;;;;;;5073770;28;20434;-73
2022/08/01 02:34:23;;;;;;;4.07;3.43;;;21.40;97.40;;;;;;5073941;28;20482;-73
2022/08/01 02:36:52;;;;;;;5.00;4.03;;;21.40;97.40;;;;;;5074508;28;20437;-73
2022/08/01 02:39:22;;;;;;;4.20;3.20;;;21.40;97.50;;;;;;5075721;28;20473;-73
2022/08/01 02:41:54;;;;;;;4.40;3.90;;;21.40;97.50;;;;;;5074838;28;20461;-73
2022/08/01 02:44:25;;;;;;;3.80;3.30;;;21.40;97.60;;;;;;5073818;28;20433;-74
2022/08/01 02:47:01;;;;;;;4.90;3.50;;;21.40;97.50;;;;;;5073248;28;20442;-73
2022/08/01 02:49:32;;;;;;;4.13;3.80;;;21.40;97.50;;;;;;5073880;28;20470;-73
2022/08/01 02:52:02;;;;;;;6.23;4.80;;;21.40;97.50;;;;;;5074359;28;20453;-73
2022/08/01 02:54:31;;;;;;;8.83;4.47;;;21.40;97.50;;;;;;5074249;28;20430;-73
2022/08/01 02:57:00;;;;;;;5.33;4.67;;;21.40;97.50;;;;;;5073277;28;20438;-73
2022/08/01 02:59:29;;;;;;;5.23;4.10;;;21.40;97.70;;;;;;5074356;28;20477;-73
2022/08/01 03:02:00;;;;;;;6.50;4.50;;;21.30;97.60;;;;;;5075590;28;20430;-73
2022/08/01 03:04:27;;;;;;;5.63;5.13;;;21.30;97.80;;;;;;5074179;28;20483;-73
2022/08/01 03:06:58;;;;;;;7.80;4.97;;;21.30;97.90;;;;;;5074155;28;20489;-73
2022/08/01 03:09:27;;;;;;;5.00;4.57;;;21.30;97.80;;;;;;5073820;28;20477;-73
2022/08/01 03:11:56;;;;;;;6.10;4.60;;;21.30;97.80;;;;;;5066743;28;20799;-73
2022/08/01 03:14:25;;;;;;;5.60;4.63;;;21.40;97.80;;;;;;5067218;28;20513;-73
2022/08/01 03:16:53;;;;;;;4.90;4.50;;;21.50;97.80;;;;;;5071992;28;20210;-73
2022/08/01 03:19:24;;;;;;;7.47;4.80;;;21.50;97.50;;;;;;5072636;28;20480;-72
2022/08/01 03:21:52;;;;;;;7.37;5.03;;;21.50;97.50;;;;;;5073760;28;20931;-73
2022/08/01 03:24:22;;;;;;;4.87;4.37;;;21.50;97.50;;;;;;5073740;28;20446;-73
2022/08/01 03:26:51;;;;;;;6.27;4.30;;;21.50;97.70;;;;;;5074475;28;20438;-73
2022/08/01 03:29:22;;;;;;;6.73;5.37;;;21.50;97.80;;;;;;5073443;28;20537;-73
2022/08/01 03:31:50;;;;;;;5.33;4.73;;;21.50;97.60;;;;;;5073808;28;20441;-73
2022/08/01 03:34:17;;;;;;;5.27;4.87;;;21.50;97.80;;;;;;5074041;28;20532;-73
2022/08/01 03:36:48;;;;;;;6.53;5.13;;;21.40;97.90;;;;;;5073813;28;20509;-73
2022/08/01 03:39:16;;;;;;;6.10;5.53;;;21.50;97.90;;;;;;5073590;28;20520;-73
2022/08/01 03:41:49;;;;;;;6.93;4.43;;;21.40;98.00;;;;;;5073210;28;20529;-73
2022/08/01 03:44:19;;;;;;;5.90;5.30;;;21.40;98.10;;;;;;5072993;28;20486;-73
2022/08/01 03:46:49;;;;;;;5.47;4.70;;;21.50;97.90;;;;;;5073750;28;20493;-73
2022/08/01 03:49:20;;;;;;;7.17;5.87;;;21.50;98.10;;;;;;5072518;28;20445;-73
2022/08/01 03:51:50;;;;;;;7.00;5.83;;;21.50;98.00;;;;;;5073788;28;20497;-73
2022/08/01 03:54:21;;;;;;;10.70;6.40;;;21.50;98.00;;;;;;5072882;28;20485;-73
2022/08/01 03:56:50;;;;;;;6.70;6.03;;;21.50;98.10;;;;;;5074831;28;20437;-73
2022/08/01 03:59:18;;;;;;;7.27;6.30;;;21.50;98.10;;;;;;5076578;28;20473;-72
2022/08/01 04:01:47;;;;;;;8.27;7.40;;;21.50;98.20;;;;;;5078169;28;20459;-73
2022/08/01 04:04:14;;;;;;;8.70;7.50;;;21.50;98.20;;;;;;5077400;28;20882;-73
2022/08/01 04:06:43;;;;;;;10.50;7.20;;;21.50;98.10;;;;;;5076927;28;20453;-73
2022/08/01 04:09:12;;;;;;;9.67;8.40;;;21.50;98.20;;;;;;5076297;28;20442;-73
2022/08/01 04:11:39;;;;;;;11.13;8.73;;;21.50;98.20;;;;;;5077986;28;20446;-73
2022/08/01 04:14:06;;;;;;;9.63;8.67;;;21.60;98.20;;;;;;5078488;28;20462;-73
2022/08/01 04:16:33;;;;;;;12.00;7.80;;;21.60;98.20;;;;;;5077679;28;20513;-72
2022/08/01 04:18:59;;;;;;;9.93;8.50;;;21.50;98.30;;;;;;5078163;28;20454;-73
2022/08/01 04:21:30;;;;;;;10.07;9.07;;;21.50;98.20;;;;;;5078621;28;20429;-73
2022/08/01 04:24:00;;;;;;;12.67;10.07;;;21.50;98.30;;;;;;5078595;28;20440;-73
2022/08/01 04:26:30;;;;;;;11.40;9.90;;;21.50;98.30;;;;;;5078087;28;20442;-73
2022/08/01 04:28:57;;;;;;;10.63;9.30;;;21.50;98.40;;;;;;5074292;28;20441;-73
2022/08/01 04:31:26;;;;;;;11.30;9.47;;;21.50;98.40;;;;;;5075688;28;20498;-73
2022/08/01 04:33:55;;;;;;;10.30;8.80;;;21.50;98.40;;;;;;5075661;28;20512;-73
2022/08/01 04:36:25;;;;;;;11.77;10.33;;;21.50;98.40;;;;;;5075541;28;20484;-73
2022/08/01 04:38:56;;;;;;;11.83;10.03;;;21.50;98.50;;;;;;5075559;28;20510;-73
2022/08/01 04:41:24;;;;;;;12.87;10.50;;;21.50;98.50;;;;;;5075978;28;20437;-73
2022/08/01 04:43:54;;;;;;;11.30;10.20;;;21.50;98.60;;;;;;5076208;28;20438;-73
2022/08/01 04:46:21;;;;;;;11.77;10.57;;;21.50;98.70;;;;;;5076528;28;20464;-72
2022/08/01 04:48:49;;;;;;;13.67;10.80;;;21.50;98.50;;;;;;5076484;28;20426;-72
2022/08/01 04:51:17;;;;;;;13.23;10.90;;;21.50;98.50;;;;;;5076231;28;20517;-72
2022/08/01 04:53:45;;;;;;;14.20;10.80;;;21.60;98.50;;;;;;5075818;28;20508;-72
2022/08/01 04:56:12;;;;;;;16.33;12.20;;;21.60;98.50;;;;;;5076083;28;20533;-72
2022/08/01 04:58:40;;;;;;;11.57;9.93;;;21.60;98.30;;;;;;5075600;28;20441;-72
2022/08/01 05:01:08;;;;;;;13.23;11.00;;;21.70;98.50;;;;;;5075893;28;20508;-72
2022/08/01 05:03:35;;;;;;;12.17;10.97;;;21.60;98.20;;;;;;5076382;28;20416;-72
2022/08/01 05:06:02;;;;;;;12.73;11.43;;;21.60;98.30;;;;;;5075598;28;20434;-72
2022/08/01 05:08:29;;;;;;;12.50;11.20;;;21.60;98.30;;;;;;5075807;28;20467;-72
2022/08/01 05:10:56;;;;;;;14.43;11.33;;;21.60;98.40;;;;;;5075642;28;20462;-72
2022/08/01 05:13:23;;;;;;;14.60;11.13;;;21.60;98.50;;;;;;5076008;28;20470;-72
2022/08/01 05:15:50;;;;;;;13.13;11.80;;;21.60;98.40;;;;;;5075007;28;20521;-72
2022/08/01 05:18:19;;;;;;;12.63;11.17;;;21.60;98.40;;;;;;5076105;28;20453;-73
2022/08/01 05:20:47;;;;;;;13.77;11.80;;;21.60;98.40;;;;;;5075241;28;20529;-72
2022/08/01 05:23:13;;;;;;;14.87;13.10;;;21.70;98.50;;;;;;5075907;28;20450;-71
2022/08/01 05:25:40;;;;;;;14.27;12.77;;;21.70;98.40;;;;;;5075548;28;20509;-73
2022/08/01 05:28:07;;;;;;;28.13;13.70;;;21.70;98.30;;;;;;5075114;28;20534;-72
2022/08/01 05:30:34;;;;;;;14.70;12.43;;;21.70;98.10;;;;;;5075263;28;20477;-72
2022/08/01 05:33:01;;;;;;;15.30;12.70;;;21.80;98.10;;;;;;5074492;28;20501;-72
2022/08/01 05:35:29;;;;;;;13.93;12.63;;;21.80;98.00;;;;;;5075151;28;20501;-72
2022/08/01 05:37:56;;;;;;;15.37;12.83;;;21.90;98.00;;;;;;5074767;28;20456;-72
2022/08/01 05:40:22;;;;;;;15.30;12.73;;;21.90;97.90;;;;;;5075625;28;20529;-72
2022/08/01 05:42:49;;;;;;;15.07;13.60;;;22.00;97.90;;;;;;5075314;28;20456;-72
2022/08/01 05:45:16;;;;;;;16.97;12.97;;;22.00;97.70;;;;;;5075176;28;20481;-72
2022/08/01 05:47:43;;;;;;;15.47;13.87;;;22.10;97.90;;;;;;5075483;28;20517;-72
2022/08/01 05:50:10;;;;;;;14.37;12.87;;;22.10;97.60;;;;;;5074760;28;20508;-72
2022/08/01 05:52:38;;;;;;;16.17;14.53;;;22.20;97.60;;;;;;5074583;28;20449;-72
2022/08/01 05:55:07;;;;;;;18.97;14.13;;;22.20;97.70;;;;;;5074718;28;20481;-72
2022/08/01 05:57:33;;;;;;;16.20;14.70;;;22.30;97.60;;;;;;5074975;28;20446;-72
2022/08/01 06:00:00;;;;;;;16.77;14.70;;;22.30;97.50;;;;;;5074277;28;20548;-72
2022/08/01 06:02:27;;;;;;;15.77;14.10;;;22.30;97.30;;;;;;5074324;28;20450;-73
2022/08/01 06:04:54;;;;;;;14.80;13.23;;;22.30;97.20;;;;;;5073452;28;20442;-71
2022/08/01 06:07:21;;;;;;;15.97;14.43;;;22.40;96.80;;;;;;5072839;28;20441;-71
2022/08/01 06:09:49;;;;;;;18.50;14.70;;;22.50;96.90;;;;;;5071410;28;20488;-71
2022/08/01 06:12:15;;;;;;;17.23;13.97;;;22.60;96.80;;;;;;5070795;28;20446;-69
2022/08/01 06:14:42;;;;;;;16.60;15.00;;;22.60;96.70;;;;;;5070380;28;20477;-69
2022/08/01 06:17:09;;;;;;;15.77;14.27;;;22.70;96.30;;;;;;5070401;28;20552;-69
2022/08/01 06:19:36;;;;;;;14.90;13.50;;;22.70;95.70;;;;;;5070995;28;20454;-69
2022/08/01 06:22:02;;;;;;;15.27;13.70;;;22.80;95.40;;;;;;5071185;28;20446;-69
2022/08/01 06:24:29;;;;;;;14.47;12.97;;;22.80;95.40;;;;;;5070268;28;20517;-69
2022/08/01 06:26:57;;;;;;;15.80;14.13;;;22.90;95.20;;;;;;5070780;28;20446;-70
2022/08/01 06:29:24;;;;;;;14.30;12.93;;;22.90;94.80;;;;;;5070236;28;20466;-69
2022/08/01 06:31:51;;;;;;;13.93;12.53;;;22.90;94.50;;;;;;5070314;28;20537;-70
2022/08/01 06:34:17;;;;;;;14.07;12.67;;;22.90;94.10;;;;;;5069204;28;20511;-70
2022/08/01 06:36:44;;;;;;;13.33;12.10;;;23.00;94.10;;;;;;5069551;28;20449;-72
2022/08/01 06:39:11;;;;;;;12.80;11.50;;;23.10;94.40;;;;;;5067922;28;20452;-70
2022/08/01 06:41:38;;;;;;;10.87;9.87;;;23.10;94.20;;;;;;5055318;28;20453;-72
2022/08/01 06:44:06;;;;;;;11.13;10.17;;;23.20;92.80;;;;;;5054531;28;20824;-68
2022/08/01 06:46:33;;;;;;;12.53;10.63;;;23.20;92.10;;;;;;5054995;28;20454;-68
2022/08/01 06:49:00;;;;;;;10.20;9.30;;;23.20;92.60;;;;;;5055401;28;20946;-68
2022/08/01 06:51:26;;;;;;;12.03;10.77;;;23.10;92.80;;;;;;5054792;28;20453;-67
2022/08/01 06:53:53;;;;;;;10.03;9.13;;;23.10;92.80;;;;;;5053937;28;20514;-70
2022/08/01 06:56:20;;;;;;;9.90;8.90;;;23.10;93.00;;;;;;5053461;28;20958;-71
2022/08/01 06:58:47;;;;;;;10.20;9.07;;;23.20;92.80;;;;;;5053680;28;20815;-70
2022/08/01 07:01:15;;;;;;;9.73;8.73;;;23.30;92.90;;;;;;5054234;28;20472;-71
2022/08/01 07:03:42;;;;;;;9.30;8.50;;;23.30;92.90;;;;;;5054673;28;20450;-71
2022/08/01 07:06:09;;;;;;;8.17;7.53;;;23.40;92.60;;;;;;5055301;28;20575;-69
2022/08/01 07:08:36;;;;;;;8.23;7.43;;;23.50;92.60;;;;;;5064020;28;20446;-68
2022/08/01 07:11:03;;;;;;;8.63;7.70;;;23.70;92.60;;;;;;5067827;28;20474;-69
2022/08/01 07:13:30;;;;;;;11.40;8.40;;;24.00;92.30;;;;;;5065033;28;20825;-68
2022/08/01 07:15:58;;;;;;;8.27;7.50;;;24.20;91.50;;;;;;5057611;28;20450;-70
2022/08/01 07:18:26;;;;;;;7.50;6.83;;;24.40;91.00;;;;;;5054620;28;20870;-70
2022/08/01 07:20:53;;;;;;;7.37;6.73;;;24.60;90.10;;;;;;5053370;28;20982;-70
2022/08/01 07:23:20;;;;;;;8.37;6.77;;;24.70;89.40;;;;;;5053089;28;20450;-70
2022/08/01 07:25:48;;;;;;;8.60;7.80;;;24.70;88.10;;;;;;5054209;28;20453;-70
2022/08/01 07:28:15;;;;;;;8.63;7.80;;;24.80;87.50;;;;;;5053114;28;20982;-70
2022/08/01 07:30:44;;;;;;;8.20;7.20;;;24.90;86.80;;;;;;5053232;28;20568;-69
2022/08/01 07:33:11;;;;;;;8.30;7.30;;;24.80;86.70;;;;;;5056817;28;20481;-70
2022/08/01 07:35:39;;;;;;;7.50;6.90;;;24.80;87.00;;;;;;5057179;28;20485;-69
2022/08/01 07:38:06;;;;;;;7.67;6.97;;;24.80;87.40;;;;;;5057659;28;20897;-69
2022/08/01 07:40:33;;;;;;;7.67;6.97;;;24.70;86.00;;;;;;5057147;28;20469;-70
2022/08/01 07:43:00;;;;;;;7.17;6.47;;;24.90;86.10;;;;;;5057486;28;20453;-70
2022/08/01 07:45:27;;;;;;;8.10;7.37;;;25.00;85.70;;;;;;5057136;28;20823;-70
2022/08/01 07:47:54;;;;;;;6.83;6.30;;;25.30;85.50;;;;;;5057264;28;20446;-71
2022/08/01 07:50:21;;;;;;;9.15;8.35;;;25.50;83.50;;;;;;5055528;28;20935;-70
2022/08/01 07:52:49;;;;;;;7.20;6.50;;;25.80;82.10;;;;;;5056500;28;20208;-71
2022/08/01 07:55:15;;;;;;;6.90;6.20;;;26.00;81.30;;;;;;5056837;28;20469;-71
2022/08/01 07:57:42;;;;;;;8.07;7.40;;;26.10;80.00;;;;;;5056741;28;20453;-71
2022/08/01 08:00:10;;;;;;;7.23;6.63;;;26.30;79.40;;;;;;5056467;28;20484;-73
2022/08/01 08:02:37;;;;;;;9.37;7.40;;;26.30;78.20;;;;;;5056855;28;20450;-73
2022/08/01 08:05:04;;;;;;;7.37;5.73;;;26.40;77.60;;;;;;5056716;28;20453;-72
2022/08/01 08:07:31;;;;;;;7.20;6.60;;;26.40;76.70;;;;;;5056431;28;20445;-72
2022/08/01 08:09:59;;;;;;;7.40;6.80;;;26.40;76.40;;;;;;5056622;28;20470;-72
2022/08/01 08:12:27;;;;;;;6.70;6.20;;;26.40;75.30;;;;;;5056749;28;20441;-71
2022/08/01 08:14:53;;;;;;;5.57;5.07;;;26.40;75.70;;;;;;5056621;28;20507;-72
2022/08/01 08:17:20;;;;;;;6.43;5.90;;;26.30;76.10;;;;;;5056927;28;20460;-72
2022/08/01 08:19:47;;;;;;;7.27;5.50;;;26.40;76.30;;;;;;5056597;28;20481;-73
2022/08/01 08:22:13;;;;;;;7.50;6.80;;;26.40;75.80;;;;;;5055444;28;20450;-73
2022/08/01 08:24:40;;;;;;;7.20;6.50;;;26.50;75.40;;;;;;5056524;28;20805;-73
2022/08/01 08:27:08;;;;;;;9.03;6.53;;;26.70;74.90;;;;;;5056362;28;20454;-73
2022/08/01 08:29:36;;;;;;;7.30;6.60;;;26.90;73.70;;;;;;5056311;28;20457;-73
2022/08/01 08:32:03;;;;;;;7.13;5.57;;;27.00;72.70;;;;;;5056573;28;20464;-73
2022/08/01 08:34:30;;;;;;;6.95;6.22;;;27.00;71.80;;;;;;5056240;28;20474;-72
2022/08/01 08:36:58;;;;;;;5.90;5.50;;;26.90;71.60;;;;;;5055831;28;20294;-72
2022/08/01 08:39:24;;;;;;;7.93;5.10;;;26.80;71.70;;;;;;5056710;28;20990;-69
2022/08/01 08:41:51;;;;;;;8.20;5.33;;;26.70;72.70;;;;;;5056546;28;20949;-69
2022/08/01 08:44:20;;;;;;;5.90;5.40;;;26.50;73.00;;;;;;5059303;28;20426;-69
2022/08/01 09:14:22;;;;;;;6.30;5.80;;;27.00;70.90;;;;;;5111165;27;20735;-75
2022/08/01 09:17:00;;;;;;;5.63;5.17;;;26.70;73.20;;;;;;5110727;28;20814;-76
2022/08/01 09:19:34;;;;;;;7.30;6.70;;;26.50;72.10;;;;;;5110893;28;20889;-75
2022/08/01 09:22:04;;;;;;;7.03;6.43;;;26.50;71.20;;;;;;5110988;28;20459;-75
2022/08/01 09:24:32;;;;;;;7.93;7.10;;;26.50;71.40;;;;;;5110947;28;20471;-76
2022/08/01 09:26:59;;;;;;;6.43;5.90;;;26.50;71.70;;;;;;5111088;28;20473;-76
2022/08/01 09:29:29;;;;;;;7.03;6.43;;;26.80;70.00;;;;;;5110760;28;20455;-76
2022/08/01 09:31:59;;;;;;;6.67;6.07;;;26.90;71.00;;;;;;5110518;28;20435;-75
2022/08/01 09:34:27;;;;;;;7.17;6.47;;;27.00;68.80;;;;;;5110536;28;20554;-75
2022/08/01 09:36:55;;;;;;;5.90;5.40;;;27.30;68.40;;;;;;5110553;28;20428;-76
2022/08/01 09:39:24;;;;;;;7.20;6.53;;;27.50;67.30;;;;;;5110323;28;20935;-76
2022/08/01 09:41:51;;;;;;;7.20;6.50;;;27.70;66.20;;;;;;5110929;28;20494;-75
2022/08/01 09:44:20;;;;;;;6.10;5.50;;;28.20;66.30;;;;;;5110241;28;20467;-75
2022/08/01 09:46:52;;;;;;;6.10;5.60;;;28.70;63.40;;;;;;5109820;28;20430;-75
2022/08/01 09:49:30;;;;;;;6.07;5.67;;;29.30;61.00;;;;;;5110359;28;20197;-76
2022/08/01 09:51:58;;;;;;;6.00;5.50;;;29.60;58.50;;;;;;5109856;28;20454;-76
2022/08/01 09:54:33;;;;;;;5.63;5.13;;;29.70;57.00;;;;;;5110138;28;20474;-76
2022/08/01 09:57:12;;;;;;;5.67;5.17;;;29.70;56.40;;;;;;5110173;28;20431;-75
2022/08/01 09:59:42;;;;;;;6.03;5.40;;;29.80;56.90;;;;;;5110201;28;20485;-70
2022/08/01 10:02:12;;;;;;;5.93;5.53;;;29.60;54.80;;;;;;5110522;28;20836;-76
2022/08/01 10:04:47;;;;;;;4.87;4.47;;;29.30;55.40;;;;;;5110582;28;20471;-72
2022/08/01 10:07:15;;;;;;;5.77;4.97;;;29.00;55.70;;;;;;5110571;28;20431;-74
2022/08/01 10:09:43;;;;;;;5.97;5.40;;;29.00;57.30;;;;;;5110343;28;20448;-74
2022/08/01 10:12:11;;;;;;;6.00;4.70;;;29.20;57.10;;;;;;5110015;28;20458;-75
2022/08/01 10:14:39;;;;;;;10.30;4.63;;;29.30;55.20;;;;;;5099826;28;20471;-71
2022/08/01 10:17:08;;;;;;;6.93;4.40;;;29.40;54.80;;;;;;5096264;28;20447;-71
2022/08/01 10:19:38;;;;;;;6.50;4.53;;;29.50;54.80;;;;;;5096450;28;20444;-74
2022/08/01 10:22:08;;;;;;;4.20;3.90;;;29.60;54.60;;;;;;5096194;28;20483;-74
2022/08/01 10:24:38;;;;;;;4.20;3.90;;;29.70;52.70;;;;;;5095743;28;20464;-74
2022/08/01 10:27:10;;;;;;;3.80;3.50;;;29.90;51.60;;;;;;5096320;28;20464;-74
2022/08/01 10:29:42;;;;;;;3.47;3.27;;;30.40;51.60;;;;;;5096179;28;20436;-73
2022/08/01 10:32:10;;;;;;;5.30;4.90;;;30.90;49.60;;;;;;5096246;28;20424;-74
2022/08/01 10:34:38;;;;;;;4.50;4.10;;;31.60;48.20;;;;;;5095641;28;20475;-74
2022/08/01 10:37:06;;;;;;;4.87;4.47;;;32.10;47.70;;;;;;5088223;28;20468;-73
2022/08/01 10:39:33;;;;;;;5.73;5.23;;;32.60;46.60;;;;;;5087087;28;20999;-73
2022/08/01 10:42:01;;;;;;;4.20;3.90;;;32.50;44.90;;;;;;5075692;28;20456;-73
2022/08/01 10:44:30;;;;;;;4.60;4.30;;;32.40;45.40;;;;;;5075475;28;20476;-73
2022/08/01 10:47:04;;;;;;;4.07;3.77;;;31.90;44.30;;;;;;5083989;28;20870;-73
2022/08/01 10:49:35;;;;;;;4.63;4.33;;;31.60;45.60;;;;;;5074751;28;20429;-74
2022/08/01 10:52:04;;;;;;;6.03;3.70;;;31.40;46.40;;;;;;5074779;28;20475;-71
2022/08/01 10:54:40;;;;;;;3.23;2.87;;;31.20;47.40;;;;;;5075139;28;21078;-70
2022/08/01 10:57:07;;;;;;;3.90;3.13;;;30.70;47.50;;;;;;5075134;28;20907;-74
2022/08/01 10:59:35;;;;;;;3.80;3.50;;;30.50;48.60;;;;;;5075529;28;20445;-74
2022/08/01 11:02:04;;;;;;;4.27;3.30;;;30.20;49.70;;;;;;5075518;28;20484;-71
2022/08/01 11:04:42;;;;;;;5.10;4.70;;;30.00;49.60;;;;;;5075595;28;20465;-74
2022/08/01 11:07:17;;;;;;;3.60;3.40;;;30.00;49.90;;;;;;5075365;28;20425;-73
2022/08/01 11:09:47;;;;;;;3.90;3.60;;;30.50;49.60;;;;;;5076154;28;20858;-71
2022/08/01 11:12:16;;;;;;;4.07;3.77;;;31.20;47.20;;;;;;5074911;28;20460;-73
2022/08/01 11:15:25;;;;;;;4.03;3.13;;;31.70;46.10;;;;;;5075143;28;20517;-74
2022/08/01 11:17:53;;;;;;;2.57;2.37;;;32.00;45.10;;;;;;5075097;28;20779;-72
2022/08/01 11:20:21;;;;;;;3.73;3.43;;;32.30;45.00;;;;;;5074883;28;20448;-72
2022/08/01 11:23:25;;;;;;;2.57;2.37;;;32.40;42.20;;;;;;5074821;28;20530;-72
2022/08/01 11:26:10;;;;;;;2.00;1.90;;;32.50;42.50;;;;;;5074014;28;20490;-72
2022/08/01 11:28:37;;;;;;;1.93;1.63;;;33.10;40.20;;;;;;5074954;28;20437;-75
2022/08/01 11:31:29;;;;;;;3.13;2.00;;;33.30;39.30;;;;;;5075058;28;20459;-74
2022/08/01 11:33:56;;;;;;;3.17;2.07;;;34.00;39.60;;;;;;5074676;28;20490;-75
2022/08/01 11:36:24;;;;;;;3.20;2.27;;;34.80;38.80;;;;;;5074472;28;20448;-75
2022/08/01 11:39:14;;;;;;;1.93;1.73;;;35.20;36.50;;;;;;5074563;28;20448;-75
2022/08/01 11:41:41;;;;;;;2.67;1.63;;;35.20;36.70;;;;;;5074463;28;20436;-75
2022/08/01 11:44:10;;;;;;;3.43;1.40;;;35.40;37.40;;;;;;5073690;28;20510;-73
2022/08/01 11:46:51;;;;;;;2.23;1.57;;;36.00;35.40;;;;;;5084352;28;20459;-73
2022/08/01 11:49:47;;;;;;;1.83;1.63;;;36.30;33.80;;;;;;5092689;28;20869;-72
2022/08/01 11:52:15;;;;;;;1.97;1.47;;;36.80;33.80;;;;;;5070641;28;20464;-71
2022/08/01 11:54:45;;;;;;;1.40;1.30;;;37.30;32.60;;;;;;5073603;28;20276;-74
2022/08/01 11:57:14;;;;;;;1.30;1.20;;;37.70;31.00;;;;;;5077994;28;20199;-73
2022/08/01 11:59:48;;;;;;;5.70;1.50;;;37.40;30.00;;;;;;5075051;28;20194;-72
2022/08/01 12:02:23;;;;;;;1.77;0.93;;;36.50;30.80;;;;;;5073900;28;20661;-72
2022/08/01 12:04:52;;;;;;;1.73;1.33;;;35.70;32.00;;;;;;5074060;28;20472;-72
2022/08/01 12:07:20;;;;;;;2.23;1.10;;;35.30;31.90;;;;;;5074086;28;20434;-73
2022/08/01 12:09:49;;;;;;;1.30;1.20;;;34.90;33.30;;;;;;5073961;28;20444;-73
2022/08/01 12:12:18;;;;;;;2.30;1.10;;;35.00;32.90;;;;;;5073870;28;20479;-73
2022/08/01 12:14:46;;;;;;;1.00;0.90;;;35.30;33.30;;;;;;5073598;28;20479;-73
2022/08/01 12:17:14;;;;;;;2.63;1.27;;;35.20;32.20;;;;;;5073905;28;20931;-73
2022/08/01 12:19:41;;;;;;;2.27;1.20;;;35.00;32.70;;;;;;5074070;28;20452;-73
2022/08/01 12:22:11;;;;;;;1.27;1.17;;;34.70;33.80;;;;;;5073842;28;20444;-73
2022/08/01 12:24:39;;;;;;;1.60;1.40;;;34.40;34.50;;;;;;5073651;28;20492;-73
2022/08/01 12:27:09;;;;;;;1.37;1.27;;;34.40;35.60;;;;;;5073724;28;20454;-73
2022/08/01 12:29:38;;;;;;;3.40;1.67;;;34.50;35.00;;;;;;5074268;28;20506;-73
2022/08/01 12:32:21;;;;;;;1.30;1.20;;;34.90;34.40;;;;;;5073619;28;20435;-73
2022/08/01 12:34:47;;;;;;;1.23;1.13;;;35.60;32.30;;;;;;5073723;28;20471;-73
2022/08/01 12:37:14;;;;;;;1.30;1.10;;;36.70;30.10;;;;;;5073354;28;20444;-73
2022/08/01 12:39:41;;;;;;;1.83;1.13;;;37.80;29.10;;;;;;5073381;28;20186;-73
2022/08/01 12:42:10;;;;;;;1.63;1.27;;;38.30;27.40;;;;;;5073518;28;20229;-73
2022/08/01 12:44:38;;;;;;;1.30;1.20;;;37.70;27.60;;;;;;5073470;28;20700;-73
2022/08/01 12:47:06;;;;;;;2.20;1.40;;;37.30;28.50;;;;;;5073341;28;20213;-73
2022/08/01 12:49:33;;;;;;;2.10;1.30;;;37.20;29.10;;;;;;5073505;28;20206;-73
2022/08/01 12:52:01;;;;;;;2.60;1.30;;;36.70;29.30;;;;;;5073239;28;20205;-73
2022/08/01 12:54:28;;;;;;;1.63;1.53;;;36.00;29.80;;;;;;5073393;28;20463;-73
2022/08/01 12:56:56;;;;;;;1.13;1.03;;;35.20;31.30;;;;;;5073230;28;20425;-73
2022/08/01 12:59:27;;;;;;;1.20;1.10;;;34.70;31.10;;;;;;5073322;28;20502;-73
2022/08/01 13:01:54;;;;;;;1.33;1.13;;;34.80;31.10;;;;;;5073050;28;20467;-73
2022/08/01 13:04:22;;;;;;;1.40;1.30;;;35.10;29.80;;;;;;5072800;28;21030;-73
2022/08/01 13:06:53;;;;;;;1.37;1.20;;;35.60;29.40;;;;;;5073435;28;20456;-73
2022/08/01 13:09:20;;;;;;;1.90;1.23;;;36.40;29.10;;;;;;5073446;28;20444;-73
2022/08/01 13:11:47;;;;;;;1.40;1.10;;;37.30;30.00;;;;;;5073114;28;20456;-72
2022/08/01 13:14:29;;;;;;;1.00;1.00;;;37.90;30.00;;;;;;5073171;28;20636;-73
2022/08/01 13:16:56;;;;;;;3.63;1.40;;;38.10;29.70;;;;;;5073215;28;20190;-73
2022/08/01 13:19:42;;;;;;;1.43;1.30;;;37.90;29.90;;;;;;5073160;28;20202;-73
2022/08/01 13:22:09;;;;;;;4.73;1.30;;;37.60;30.00;;;;;;5072871;28;20665;-73